createdAt,value
2024-03-06T00:05:49.208Z,100.0
2024-03-06T00:17:47.798Z,100.0
2024-03-06T00:29:47.627Z,100.0
2024-03-06T00:41:47.761Z,100.0
2024-03-06T00:53:47.634Z,100.0
2024-03-06T01:05:49.445Z,100.0
2024-03-06T01:17:47.754Z,100.0
2024-03-06T01:29:47.629Z,100.0
2024-03-06T01:41:47.659Z,100.0
2024-03-06T01:53:47.637Z,100.0
2024-03-06T02:05:49.458Z,100.0
2024-03-06T02:17:47.743Z,100.0
2024-03-06T02:29:47.767Z,100.0
2024-03-06T02:41:47.733Z,100.0
2024-03-06T02:53:47.647Z,100.0
2024-03-06T03:05:49.540Z,100.0
2024-03-06T03:17:47.790Z,100.0
2024-03-06T03:29:47.682Z,100.0
2024-03-06T03:41:47.803Z,100.0
2024-03-06T03:53:47.630Z,100.0
2024-03-06T04:05:49.589Z,100.0
2024-03-06T04:17:47.772Z,100.0
2024-03-06T04:29:47.722Z,100.0
2024-03-06T04:41:47.756Z,100.0
2024-03-06T04:53:47.624Z,100.0
2024-03-06T06:05:49.797Z,100.0
2024-03-06T06:17:48.141Z,100.0
2024-03-06T06:29:47.754Z,100.0
2024-03-06T06:41:47.645Z,100.0
2024-03-06T06:53:47.671Z,100.0
2024-03-06T07:05:47.694Z,100.0
2024-03-06T07:17:47.799Z,100.0
2024-03-06T07:29:47.750Z,100.0
2024-03-06T07:41:48.302Z,100.0
2024-03-06T07:53:47.679Z,100.0
2024-03-06T08:05:47.764Z,100.0
2024-03-06T08:17:47.801Z,100.0
2024-03-06T08:29:47.629Z,100.0
2024-03-06T08:41:47.803Z,100.0
2024-03-06T08:53:47.696Z,100.0
2024-03-06T09:05:47.725Z,100.0
2024-03-06T09:17:47.741Z,100.0
2024-03-06T09:29:47.777Z,100.0
2024-03-06T09:41:47.834Z,100.0
2024-03-06T09:53:47.693Z,100.0
2024-03-06T10:05:47.820Z,100.0
2024-03-06T10:17:48.275Z,100.0
2024-03-06T10:29:47.751Z,100.0
2024-03-06T10:41:47.823Z,99.3
2024-03-06T10:53:47.681Z,95.6
2024-03-06T11:05:47.840Z,93.6
2024-03-06T11:17:47.812Z,92.7
2024-03-06T11:29:47.669Z,87.7
2024-03-06T11:41:47.762Z,87.5
2024-03-06T11:53:47.697Z,81.2
2024-03-06T12:05:47.783Z,75.3
2024-03-06T12:17:47.963Z,72.7
2024-03-06T12:29:48.061Z,65.4
2024-03-06T12:41:47.746Z,67.6
2024-03-06T12:53:47.692Z,60.5
2024-03-06T13:05:47.736Z,59.0
2024-03-06T13:17:47.922Z,59.9
2024-03-06T13:29:47.702Z,57.1
2024-03-06T13:41:47.708Z,54.2
2024-03-06T13:53:47.664Z,56.7
2024-03-06T14:05:47.678Z,56.4
2024-03-06T14:17:47.871Z,57.6
2024-03-06T14:29:47.728Z,56.4
2024-03-06T14:41:47.781Z,57.9
2024-03-06T14:53:47.667Z,56.9
2024-03-06T15:05:47.871Z,58.4
2024-03-06T15:17:47.987Z,58.8
2024-03-06T15:29:47.859Z,62.1
2024-03-06T15:41:47.776Z,62.8
2024-03-06T15:53:47.673Z,63.7
2024-03-06T16:05:50.452Z,64.3
2024-03-06T16:17:47.737Z,64.3
2024-03-06T16:29:47.711Z,68.3
2024-03-06T16:41:47.691Z,68.7
2024-03-06T16:53:47.749Z,69.3
2024-03-06T17:05:47.705Z,70.1
2024-03-06T17:17:47.771Z,70.7
2024-03-06T17:29:47.798Z,70.8
2024-03-06T17:41:47.894Z,71.4
2024-03-06T17:53:47.700Z,71.1
2024-03-06T18:05:47.746Z,71.3
2024-03-06T18:17:48.467Z,73.0
2024-03-06T18:29:47.809Z,73.1
2024-03-06T18:41:47.944Z,73.7
2024-03-06T18:53:47.679Z,76.7
2024-03-06T19:05:48.702Z,78.0
2024-03-06T19:17:48.180Z,78.8
2024-03-06T19:29:47.820Z,79.9
2024-03-06T19:41:47.670Z,79.7
2024-03-06T19:53:47.740Z,80.1
2024-03-06T20:05:47.764Z,80.8
2024-03-06T20:17:47.825Z,81.6
2024-03-06T20:29:47.882Z,82.7
2024-03-06T20:41:48.019Z,84.1
2024-03-06T20:53:47.872Z,85.1
2024-03-06T21:05:47.891Z,86.1
2024-03-06T21:17:47.873Z,87.1
2024-03-06T21:29:47.769Z,87.6
2024-03-06T21:41:47.887Z,88.2
2024-03-06T21:53:47.745Z,88.1
2024-03-06T22:05:47.750Z,88.5
2024-03-06T22:17:49.176Z,89.0
2024-03-06T22:29:47.923Z,89.8
2024-03-06T22:41:47.768Z,90.4
2024-03-06T22:53:47.787Z,90.5
2024-03-06T23:05:47.797Z,92.2
2024-03-06T23:17:47.780Z,92.2
2024-03-06T23:29:47.749Z,92.7
2024-03-06T23:41:47.710Z,93.0
2024-03-06T23:53:47.941Z,94.2
